ITY77G LOWW-LIPX
Flight info
| Callsign | ITY77G |
|---|---|
| Flight time | 0h 53m |
| Altitude | 34000 |
| Route | OSPEN DCT ABRUK DCT SETAL DCT DETSA/N0423F330 DCT DIBAX/N0410F290 T897 ANJAT |
| Aircraft | A320/M-SDE3FGHIRWY/LB1 |
Departure
| Time | 2026-05-04 08:50 |
|---|---|
| Airport | Vienna International Airport (LOWW) |
Arrival
| Time | 2026-05-04 09:43 |
|---|---|
| Airport | Verona Villafranca Valerio Catullo Airport (LIPX) |
| Time | Latitude | Longitude | Altitude | Speed | Heading |
|---|---|---|---|---|---|
| 2026-05-04 08:37 | 48.12028 | 16.55263 | 621 ft | 0 kts | 296° |
| 2026-05-04 08:42 | 48.12035 | 16.55240 | 622 ft | 7 kts | 292° |
| 2026-05-04 08:42 | 48.11988 | 16.55173 | 619 ft | 14 kts | 185° |
| 2026-05-04 08:43 | 48.11929 | 16.55313 | 616 ft | 20 kts | 120° |
| 2026-05-04 08:43 | 48.11871 | 16.55524 | 622 ft | 23 kts | 114° |
| 2026-05-04 08:43 | 48.11798 | 16.55746 | 616 ft | 24 kts | 116° |
| 2026-05-04 08:43 | 48.11722 | 16.55981 | 619 ft | 26 kts | 115° |
| 2026-05-04 08:44 | 48.11640 | 16.56233 | 616 ft | 28 kts | 116° |
| 2026-05-04 08:44 | 48.11555 | 16.56493 | 612 ft | 28 kts | 116° |
| 2026-05-04 08:46 | 48.11667 | 16.57531 | 616 ft | 10 kts | 341° |
| 2026-05-04 08:46 | 48.11732 | 16.57503 | 611 ft | 9 kts | 346° |
| 2026-05-04 08:46 | 48.11790 | 16.57483 | 616 ft | 8 kts | 354° |
| 2026-05-04 08:46 | 48.11829 | 16.57517 | 625 ft | 6 kts | 65° |
| 2026-05-04 08:47 | 48.11837 | 16.57555 | 620 ft | 5 kts | 73° |
| 2026-05-04 08:47 | 48.11851 | 16.57629 | 622 ft | 7 kts | 74° |
| 2026-05-04 08:47 | 48.11862 | 16.57713 | 616 ft | 9 kts | 87° |
| 2026-05-04 08:47 | 48.11856 | 16.57783 | 617 ft | 11 kts | 103° |
| 2026-05-04 08:48 | 48.11828 | 16.57877 | 619 ft | 8 kts | 140° |
| 2026-05-04 08:48 | 48.11792 | 16.57895 | 611 ft | 1 kts | 163° |
| 2026-05-04 08:48 | 48.11698 | 16.57937 | 615 ft | 46 kts | 163° |
| 2026-05-04 08:48 | 48.11148 | 16.58171 | 617 ft | 115 kts | 164° |
| 2026-05-04 08:49 | 48.10199 | 16.58578 | 680 ft | 161 kts | 163° |
| 2026-05-04 08:50 | 48.03199 | 16.56670 | 4138 ft | 245 kts | 228° |
| 2026-05-04 08:50 | 48.02085 | 16.54714 | 5120 ft | 250 kts | 229° |
| 2026-05-04 08:51 | 48.00942 | 16.52722 | 5896 ft | 262 kts | 228° |
| 2026-05-04 08:51 | 47.99726 | 16.50667 | 6835 ft | 266 kts | 228° |
| 2026-05-04 08:51 | 47.98469 | 16.48603 | 7698 ft | 272 kts | 226° |
| 2026-05-04 08:51 | 47.97168 | 16.46522 | 8692 ft | 271 kts | 226° |
| 2026-05-04 08:52 | 47.96069 | 16.44232 | 9606 ft | 279 kts | 241° |
| 2026-05-04 08:52 | 47.95423 | 16.41470 | 10362 ft | 291 kts | 251° |
| 2026-05-04 08:52 | 47.94870 | 16.38436 | 10680 ft | 314 kts | 252° |
| 2026-05-04 08:52 | 47.94291 | 16.35220 | 11244 ft | 326 kts | 253° |
| 2026-05-04 08:53 | 47.93701 | 16.31914 | 11969 ft | 333 kts | 253° |
| 2026-05-04 08:54 | 47.89345 | 16.07824 | 17211 ft | 356 kts | 253° |
| 2026-05-04 08:55 | 47.88687 | 16.04237 | 17923 ft | 359 kts | 253° |
| 2026-05-04 08:55 | 47.87977 | 16.00648 | 18571 ft | 362 kts | 248° |
| 2026-05-04 08:55 | 47.86873 | 15.97315 | 19149 ft | 365 kts | 236° |
| 2026-05-04 08:55 | 47.85307 | 15.94339 | 19722 ft | 368 kts | 225° |
| 2026-05-04 08:57 | 47.70642 | 15.77512 | 23711 ft | 394 kts | 217° |
| 2026-05-04 09:01 | 47.44983 | 15.34450 | 29445 ft | 428 kts | 255° |
| 2026-05-04 09:01 | 47.44151 | 15.30198 | 29814 ft | 430 kts | 255° |
| 2026-05-04 09:01 | 47.43313 | 15.25933 | 30164 ft | 432 kts | 254° |
| 2026-05-04 09:01 | 47.42474 | 15.21692 | 30447 ft | 434 kts | 255° |
| 2026-05-04 09:02 | 47.41623 | 15.17401 | 30719 ft | 436 kts | 255° |
| 2026-05-04 09:02 | 47.40768 | 15.13075 | 31000 ft | 438 kts | 255° |
| 2026-05-04 09:02 | 47.39923 | 15.08797 | 31273 ft | 439 kts | 255° |
| 2026-05-04 09:02 | 47.39063 | 15.04444 | 31544 ft | 440 kts | 255° |
| 2026-05-04 09:03 | 47.38202 | 15.00102 | 31856 ft | 440 kts | 255° |
| 2026-05-04 09:03 | 47.37340 | 14.95771 | 32257 ft | 438 kts | 255° |
| 2026-05-04 09:03 | 47.36481 | 14.91474 | 32638 ft | 437 kts | 255° |
| 2026-05-04 09:03 | 47.35623 | 14.87180 | 33026 ft | 435 kts | 255° |
| 2026-05-04 09:04 | 47.34780 | 14.82970 | 33409 ft | 433 kts | 255° |
| 2026-05-04 09:04 | 47.33928 | 14.78728 | 33803 ft | 432 kts | 255° |
| 2026-05-04 09:04 | 47.33061 | 14.74424 | 34065 ft | 431 kts | 255° |
| 2026-05-04 09:05 | 47.31388 | 14.66136 | 34102 ft | 423 kts | 255° |
| 2026-05-04 09:05 | 47.29680 | 14.57689 | 34102 ft | 437 kts | 255° |
| 2026-05-04 09:06 | 47.27912 | 14.49010 | 34111 ft | 445 kts | 254° |
| 2026-05-04 09:08 | 47.20663 | 14.13772 | 34089 ft | 452 kts | 254° |
| 2026-05-04 09:08 | 47.18827 | 14.04961 | 34105 ft | 452 kts | 254° |
| 2026-05-04 09:09 | 47.16967 | 13.96102 | 34098 ft | 453 kts | 254° |
| 2026-05-04 09:09 | 47.15111 | 13.87297 | 34097 ft | 453 kts | 254° |
| 2026-05-04 09:10 | 47.13244 | 13.78453 | 34099 ft | 453 kts | 253° |
| 2026-05-04 09:10 | 47.11374 | 13.69604 | 34096 ft | 453 kts | 253° |
| 2026-05-04 09:11 | 47.09499 | 13.60810 | 34103 ft | 453 kts | 253° |
| 2026-05-04 09:11 | 47.07602 | 13.51963 | 34111 ft | 453 kts | 253° |
| 2026-05-04 09:12 | 47.05712 | 13.43180 | 34107 ft | 453 kts | 253° |
| 2026-05-04 09:14 | 46.98078 | 13.08005 | 34080 ft | 453 kts | 252° |
| 2026-05-04 09:14 | 46.96157 | 12.99261 | 34077 ft | 453 kts | 252° |
| 2026-05-04 09:15 | 46.94231 | 12.90507 | 34082 ft | 453 kts | 252° |
| 2026-05-04 09:15 | 46.92297 | 12.81751 | 34084 ft | 453 kts | 252° |
| 2026-05-04 09:17 | 46.83530 | 12.42553 | 34168 ft | 449 kts | 252° |
| 2026-05-04 09:18 | 46.81578 | 12.33946 | 34177 ft | 449 kts | 252° |
| 2026-05-04 09:18 | 46.78916 | 12.25745 | 34199 ft | 450 kts | 234° |
| 2026-05-04 09:19 | 46.74993 | 12.18590 | 34118 ft | 450 kts | 232° |
| 2026-05-04 09:19 | 46.71056 | 12.11495 | 34115 ft | 449 kts | 232° |
| 2026-05-04 09:20 | 46.67153 | 12.04461 | 34108 ft | 449 kts | 232° |
| 2026-05-04 09:20 | 46.63203 | 11.97380 | 34132 ft | 449 kts | 231° |
| 2026-05-04 09:21 | 46.59258 | 11.90330 | 34134 ft | 449 kts | 231° |
| 2026-05-04 09:21 | 46.55324 | 11.83295 | 34136 ft | 449 kts | 231° |
| 2026-05-04 09:22 | 46.51382 | 11.76259 | 34132 ft | 449 kts | 231° |
| 2026-05-04 09:22 | 46.47434 | 11.69237 | 34129 ft | 448 kts | 231° |
| 2026-05-04 09:23 | 46.43484 | 11.62243 | 34119 ft | 448 kts | 231° |
| 2026-05-04 09:23 | 46.39628 | 11.55426 | 34089 ft | 422 kts | 231° |
| 2026-05-04 09:25 | 46.27008 | 11.33237 | 29973 ft | 399 kts | 231° |
| 2026-05-04 09:25 | 46.25244 | 11.30145 | 29352 ft | 396 kts | 231° |
| 2026-05-04 09:26 | 46.23498 | 11.27087 | 28781 ft | 393 kts | 231° |
| 2026-05-04 09:26 | 46.21762 | 11.24049 | 28273 ft | 390 kts | 231° |
| 2026-05-04 09:26 | 46.20037 | 11.21035 | 27744 ft | 387 kts | 231° |
| 2026-05-04 09:26 | 46.18338 | 11.18072 | 27203 ft | 384 kts | 231° |
| 2026-05-04 09:27 | 46.16637 | 11.15110 | 26699 ft | 381 kts | 231° |
| 2026-05-04 09:27 | 46.14952 | 11.12179 | 26202 ft | 379 kts | 231° |
| 2026-05-04 09:27 | 46.13269 | 11.09258 | 25705 ft | 376 kts | 230° |
| 2026-05-04 09:27 | 46.11423 | 11.06602 | 25213 ft | 374 kts | 220° |
| 2026-05-04 09:28 | 46.09276 | 11.04495 | 24707 ft | 373 kts | 210° |
| 2026-05-04 09:28 | 46.07039 | 11.02699 | 24223 ft | 371 kts | 210° |
| 2026-05-04 09:28 | 46.04786 | 11.00877 | 23719 ft | 369 kts | 211° |
| 2026-05-04 09:28 | 46.02553 | 10.99062 | 23201 ft | 367 kts | 210° |
| 2026-05-04 09:29 | 46.00338 | 10.97264 | 22710 ft | 364 kts | 210° |
| 2026-05-04 09:29 | 45.98163 | 10.95502 | 22221 ft | 361 kts | 210° |
| 2026-05-04 09:29 | 45.95975 | 10.93733 | 21734 ft | 358 kts | 210° |
| 2026-05-04 09:29 | 45.93821 | 10.91998 | 21278 ft | 355 kts | 210° |
| 2026-05-04 09:30 | 45.91675 | 10.90271 | 20817 ft | 352 kts | 209° |
| 2026-05-04 09:30 | 45.89544 | 10.88557 | 20379 ft | 349 kts | 209° |
| 2026-05-04 09:30 | 45.87423 | 10.86848 | 19938 ft | 347 kts | 209° |
| 2026-05-04 09:30 | 45.85325 | 10.85157 | 19503 ft | 344 kts | 209° |
| 2026-05-04 09:31 | 45.83214 | 10.83580 | 19056 ft | 342 kts | 202° |
| 2026-05-04 09:31 | 45.80981 | 10.82606 | 18633 ft | 339 kts | 191° |
| 2026-05-04 09:31 | 45.78640 | 10.82304 | 18188 ft | 337 kts | 181° |
| 2026-05-04 09:31 | 45.76300 | 10.82256 | 17745 ft | 335 kts | 181° |
| 2026-05-04 09:32 | 45.73981 | 10.82202 | 17313 ft | 331 kts | 181° |
| 2026-05-04 09:32 | 45.71688 | 10.82143 | 16862 ft | 329 kts | 182° |
| 2026-05-04 09:34 | 45.56478 | 10.78882 | 14177 ft | 308 kts | 195° |
| 2026-05-04 09:34 | 45.54405 | 10.78112 | 13801 ft | 306 kts | 195° |
| 2026-05-04 09:34 | 45.52358 | 10.77349 | 13342 ft | 302 kts | 195° |
| 2026-05-04 09:34 | 45.50340 | 10.76594 | 12503 ft | 300 kts | 195° |
| 2026-05-04 09:35 | 45.48325 | 10.75839 | 11663 ft | 299 kts | 195° |
| 2026-05-04 09:35 | 45.46318 | 10.75084 | 10862 ft | 298 kts | 195° |
| 2026-05-04 09:35 | 45.44311 | 10.74326 | 10057 ft | 298 kts | 195° |
| 2026-05-04 09:35 | 45.42347 | 10.73588 | 9592 ft | 284 kts | 196° |
| 2026-05-04 09:37 | 45.32263 | 10.62080 | 5437 ft | 243 kts | 205° |
| 2026-05-04 09:37 | 45.30694 | 10.61437 | 4994 ft | 235 kts | 183° |
| 2026-05-04 09:38 | 45.29094 | 10.61709 | 4508 ft | 231 kts | 162° |
| 2026-05-04 09:38 | 45.27697 | 10.62810 | 4036 ft | 228 kts | 139° |
| 2026-05-04 09:38 | 45.26752 | 10.64541 | 3933 ft | 219 kts | 117° |
| 2026-05-04 09:38 | 45.26325 | 10.66561 | 3845 ft | 212 kts | 97° |
| 2026-05-04 09:39 | 45.26415 | 10.68622 | 3692 ft | 208 kts | 76° |
| 2026-05-04 09:39 | 45.26991 | 10.70491 | 3478 ft | 207 kts | 55° |
| 2026-05-04 09:39 | 45.27943 | 10.72015 | 3230 ft | 207 kts | 45° |
| 2026-05-04 09:39 | 45.28963 | 10.73479 | 2947 ft | 210 kts | 44° |
| 2026-05-04 09:40 | 45.29983 | 10.74952 | 2713 ft | 210 kts | 44° |
| 2026-05-04 09:40 | 45.30999 | 10.76422 | 2398 ft | 205 kts | 45° |
| 2026-05-04 09:40 | 45.31963 | 10.77816 | 2121 ft | 188 kts | 44° |
| 2026-05-04 09:40 | 45.32831 | 10.79075 | 1925 ft | 171 kts | 45° |
| 2026-05-04 09:41 | 45.33373 | 10.79860 | 1754 ft | 163 kts | 45° |
| 2026-05-04 09:42 | 45.38244 | 10.86942 | 396 ft | 137 kts | 46° |
| 2026-05-04 09:43 | 45.38918 | 10.87902 | 265 ft | 136 kts | 48° |
| 2026-05-04 09:43 | 45.39530 | 10.88795 | 239 ft | 107 kts | 45° |
| 2026-05-04 09:43 | 45.39890 | 10.89318 | 237 ft | 50 kts | 45° |
| 2026-05-04 09:43 | 45.40119 | 10.89658 | 239 ft | 46 kts | 46° |
| 2026-05-04 09:44 | 45.40273 | 10.89892 | 238 ft | 25 kts | 68° |
| 2026-05-04 09:44 | 45.40316 | 10.90145 | 237 ft | 28 kts | 75° |
| 2026-05-04 09:44 | 45.40311 | 10.90307 | 237 ft | 15 kts | 131° |
| 2026-05-04 09:46 | 45.40243 | 10.90518 | 237 ft | 0 kts | 136° |